Time;durP1;ratioP1;P1;durP2;ratioP2;P2;SDS_P1;SDS_P2;PMS_P1;PMS_P2;Temp;Humidity;BMP_temperature;BMP_pressure;BME280_temperature;BME280_humidity;BME280_pressure;Samples;Min_cycle;Max_cycle;Signal;HPM_P1;HPM_P2
2023/04/11 03:02:57;;;;;;;1.45;1.20;;;17.00;50.70;;;;;;4926516;28;46281;-63
2023/04/11 03:05:23;;;;;;;1.30;1.20;;;17.00;51.30;;;;;;4960892;28;45280;-61
2023/04/11 03:07:49;;;;;;;1.20;1.05;;;17.00;50.70;;;;;;4936565;28;46873;-62
2023/04/11 03:10:15;;;;;;;1.48;1.38;;;17.00;50.70;;;;;;4959311;28;45258;-62
2023/04/11 03:12:40;;;;;;;1.25;1.15;;;17.00;50.70;;;;;;4951660;28;45891;-61
2023/04/11 03:15:09;;;;;;;1.38;1.27;;;17.00;50.70;;;;;;4949157;28;45218;-64
2023/04/11 03:17:35;;;;;;;1.40;1.30;;;17.00;50.70;;;;;;4941924;28;45665;-61
2023/04/11 03:20:00;;;;;;;1.45;1.25;;;17.00;50.70;;;;;;4945947;28;45139;-62
2023/04/11 03:22:26;;;;;;;1.40;1.30;;;17.00;50.80;;;;;;4941410;28;46450;-63
2023/04/11 03:24:52;;;;;;;1.42;1.33;;;17.00;50.70;;;;;;4967733;28;44977;-62
2023/04/11 03:27:17;;;;;;;1.40;1.30;;;17.00;50.70;;;;;;4917107;28;45196;-62
2023/04/11 03:29:43;;;;;;;1.50;1.20;;;17.00;50.80;;;;;;4963550;28;45291;-62
2023/04/11 03:32:08;;;;;;;1.50;1.40;;;17.00;50.70;;;;;;4956347;28;45103;-63
2023/04/11 03:34:34;;;;;;;1.58;1.40;;;17.00;50.70;;;;;;4962873;28;45097;-62
2023/04/11 03:37:00;;;;;;;1.20;1.10;;;17.00;50.80;;;;;;4961688;28;46063;-63
2023/04/11 03:39:25;;;;;;;1.50;1.33;;;17.00;50.80;;;;;;4960544;28;45041;-63
2023/04/11 03:41:51;;;;;;;1.30;1.20;;;17.00;50.80;;;;;;4944503;28;45164;-63
2023/04/11 03:44:16;;;;;;;1.50;1.23;;;17.00;50.80;;;;;;4968498;28;45254;-62
2023/04/11 03:46:42;;;;;;;1.08;0.98;;;17.00;50.80;;;;;;4951541;28;46735;-62
2023/04/11 03:49:08;;;;;;;1.15;1.05;;;17.00;50.80;;;;;;4947615;28;44989;-63
2023/04/11 03:51:34;;;;;;;1.30;1.20;;;17.00;50.80;;;;;;4923457;28;45108;-62
2023/04/11 03:53:59;;;;;;;1.23;1.13;;;17.00;50.80;;;;;;4946935;28;45264;-63
2023/04/11 03:56:26;;;;;;;1.20;1.10;;;17.00;50.80;;;;;;4956737;28;45395;-63
2023/04/11 03:58:51;;;;;;;1.17;1.08;;;17.00;50.80;;;;;;4929571;28;45129;-60
2023/04/11 04:01:17;;;;;;;1.25;1.15;;;17.00;50.80;;;;;;4953858;28;45004;-61
2023/04/11 04:03:42;;;;;;;1.30;1.17;;;17.00;50.80;;;;;;4980192;28;44878;-60
2023/04/11 04:06:08;;;;;;;1.42;1.33;;;17.00;50.70;;;;;;4960166;28;45888;-61
2023/04/11 04:08:34;;;;;;;1.20;1.10;;;17.00;50.80;;;;;;4981304;28;45217;-62
2023/04/11 04:10:59;;;;;;;1.33;1.13;;;17.00;50.70;;;;;;4957332;28;45254;-61
2023/04/11 04:13:26;;;;;;;1.17;1.08;;;17.00;50.70;;;;;;4972755;28;45985;-62
2023/04/11 04:15:51;;;;;;;1.58;1.27;;;17.00;50.80;;;;;;4969835;28;45378;-62
2023/04/11 04:18:17;;;;;;;1.23;1.13;;;17.00;50.80;;;;;;4978420;28;45119;-64
2023/04/11 04:20:42;;;;;;;1.52;1.42;;;17.00;50.80;;;;;;4970289;28;44998;-62
2023/04/11 04:23:08;;;;;;;2.08;1.27;;;17.00;50.80;;;;;;4979529;28;45096;-62
2023/04/11 04:25:33;;;;;;;1.20;1.10;;;17.00;50.80;;;;;;4977380;28;46637;-61
2023/04/11 04:27:59;;;;;;;1.50;1.40;;;17.00;50.90;;;;;;4968132;28;45006;-64
2023/04/11 04:30:27;;;;;;;1.23;1.13;;;17.00;50.90;;;;;;4973656;28;44795;-61
2023/04/11 04:32:57;;;;;;;1.45;1.23;;;16.90;50.80;;;;;;4947886;28;45638;-61
2023/04/11 04:35:23;;;;;;;1.20;1.10;;;17.00;50.90;;;;;;4966146;28;45607;-62
2023/04/11 04:37:49;;;;;;;1.30;1.20;;;17.00;50.90;;;;;;4965992;28;45579;-61
2023/04/11 04:40:19;;;;;;;1.50;1.40;;;17.00;50.90;;;;;;4961535;28;45452;-61
2023/04/11 04:42:48;;;;;;;1.25;1.15;;;16.90;50.80;;;;;;4956885;28;44928;-59
2023/04/11 04:45:14;;;;;;;1.10;0.98;;;17.00;50.90;;;;;;4943522;28;45361;-62
2023/04/11 04:47:40;;;;;;;1.20;1.10;;;16.90;50.80;;;;;;4917056;28;45389;-61
2023/04/11 04:50:06;;;;;;;1.20;1.10;;;16.90;51.40;;;;;;4963430;28;45269;-62
2023/04/11 04:52:32;;;;;;;1.52;1.10;;;16.90;50.80;;;;;;4934808;28;45462;-62
2023/04/11 04:54:57;;;;;;;1.63;1.40;;;16.90;50.80;;;;;;4966110;28;45798;-63
2023/04/11 04:57:26;;;;;;;1.38;1.27;;;17.00;50.90;;;;;;4947572;28;47224;-62
2023/04/11 04:59:53;;;;;;;1.13;1.02;;;16.90;50.80;;;;;;4948178;28;45295;-61
2023/04/11 05:02:18;;;;;;;1.58;1.27;;;16.90;50.80;;;;;;4927084;28;45671;-62
2023/04/11 05:04:44;;;;;;;1.40;1.30;;;16.90;50.80;;;;;;4949434;28;47026;-62
2023/04/11 05:07:12;;;;;;;1.50;1.30;;;16.90;50.80;;;;;;4962620;28;45414;-62
2023/04/11 05:09:38;;;;;;;1.38;1.20;;;16.90;50.80;;;;;;4949033;28;45357;-63
2023/04/11 05:12:03;;;;;;;1.48;1.27;;;16.90;50.80;;;;;;4965808;28;45520;-62
2023/04/11 05:14:29;;;;;;;1.17;1.08;;;16.90;50.80;;;;;;4968759;28;45366;-63
2023/04/11 05:16:55;;;;;;;1.30;1.20;;;16.90;50.90;;;;;;4935611;28;45816;-62
2023/04/11 05:19:20;;;;;;;1.27;1.17;;;16.90;50.90;;;;;;4965943;28;45407;-60
2023/04/11 05:21:46;;;;;;;1.08;1.08;;;16.90;50.90;;;;;;4942361;28;45463;-60
2023/04/11 05:24:11;;;;;;;1.23;1.13;;;16.90;51.00;;;;;;4968475;28;46050;-62
2023/04/11 05:26:37;;;;;;;1.20;1.10;;;16.90;50.90;;;;;;4962107;28;45880;-61
2023/04/11 05:29:02;;;;;;;1.17;1.08;;;16.90;50.90;;;;;;4966676;28;45563;-62
2023/04/11 05:31:28;;;;;;;1.17;1.08;;;16.90;50.90;;;;;;4940194;28;45270;-63
2023/04/11 05:33:54;;;;;;;1.20;1.10;;;16.90;51.00;;;;;;4934579;28;47340;-62
2023/04/11 05:36:20;;;;;;;1.20;1.00;;;16.90;51.00;;;;;;4949227;28;44679;-62
2023/04/11 05:38:45;;;;;;;1.23;1.13;;;16.90;50.90;;;;;;4969584;28;45442;-62
2023/04/11 05:41:11;;;;;;;1.90;1.50;;;16.90;51.00;;;;;;4958325;28;45504;-62
2023/04/11 05:43:37;;;;;;;1.05;1.00;;;16.90;51.00;;;;;;4963613;28;45217;-62
2023/04/11 05:46:03;;;;;;;1.30;1.20;;;16.90;51.00;;;;;;4943280;28;45223;-61
2023/04/11 05:48:28;;;;;;;1.25;1.15;;;16.90;51.00;;;;;;4948939;28;45682;-59
2023/04/11 05:50:55;;;;;;;1.10;1.00;;;16.90;51.00;;;;;;4942232;28;45654;-62
2023/04/11 05:53:21;;;;;;;0.90;0.90;;;17.00;50.90;;;;;;4969934;28;47869;-62
2023/04/11 05:55:46;;;;;;;1.52;0.93;;;16.90;50.80;;;;;;4956223;28;45664;-61
2023/04/11 05:58:12;;;;;;;0.88;0.75;;;16.80;51.00;;;;;;4967982;28;45666;-63
2023/04/11 06:00:37;;;;;;;1.63;1.10;;;16.70;51.20;;;;;;4955353;28;45236;-63
2023/04/11 06:03:09;;;;;;;4.53;1.00;;;16.80;51.30;;;;;;4951401;28;45950;-62
2023/04/11 06:05:34;;;;;;;1.15;0.88;;;17.00;51.10;;;;;;4959090;28;45406;-63
2023/04/11 06:08:01;;;;;;;1.05;0.98;;;17.20;50.80;;;;;;4967542;28;45359;-61
2023/04/11 06:10:27;;;;;;;3.10;1.23;;;17.40;50.60;;;;;;4941660;28;44987;-62
2023/04/11 06:12:53;;;;;;;1.33;1.10;;;17.60;50.30;;;;;;4960849;28;45774;-62
2023/04/11 06:15:19;;;;;;;3.55;1.20;;;17.80;50.00;;;;;;4929892;28;45506;-61
2023/04/11 06:17:45;;;;;;;1.27;0.80;;;18.00;49.70;;;;;;4960518;28;44991;-62
2023/04/11 06:20:10;;;;;;;1.17;0.80;;;18.20;49.50;;;;;;4960045;28;45421;-61
2023/04/11 06:22:36;;;;;;;0.85;0.60;;;18.40;49.40;;;;;;4930206;28;45459;-59
2023/04/11 06:25:03;;;;;;;1.00;0.90;;;18.50;49.20;;;;;;4965993;28;44859;-62
2023/04/11 06:27:29;;;;;;;3.20;1.00;;;18.70;49.10;;;;;;4931655;28;45538;-61
2023/04/11 06:29:54;;;;;;;2.85;0.80;;;18.80;49.00;;;;;;4963725;28;45213;-61
2023/04/11 06:32:20;;;;;;;0.75;0.75;;;19.00;48.80;;;;;;4950343;28;45447;-61
2023/04/11 06:34:46;;;;;;;1.73;1.10;;;19.10;48.70;;;;;;4947136;28;45434;-57
2023/04/11 06:37:11;;;;;;;1.48;0.73;;;19.30;48.50;;;;;;4966273;28;45856;-61
2023/04/11 06:39:37;;;;;;;0.80;0.80;;;19.40;48.50;;;;;;4947567;28;44857;-59
2023/04/11 06:42:02;;;;;;;1.40;0.80;;;19.50;48.30;;;;;;4948835;28;46866;-60
2023/04/11 06:44:28;;;;;;;3.55;0.90;;;19.60;48.30;;;;;;4963369;28;45073;-61
2023/04/11 06:46:54;;;;;;;1.35;0.95;;;19.70;48.20;;;;;;4952414;28;45624;-62
2023/04/11 06:49:19;;;;;;;1.00;0.90;;;19.80;48.20;;;;;;4954221;28;48850;-63
2023/04/11 06:51:51;;;;;;;0.80;0.63;;;19.90;48.20;;;;;;4944426;28;47802;-59
2023/04/11 06:54:17;;;;;;;1.15;0.85;;;20.00;48.10;;;;;;4964671;28;45555;-61
2023/04/11 06:56:43;;;;;;;1.38;0.80;;;20.00;48.00;;;;;;4949685;28;45057;-61
2023/04/11 06:59:09;;;;;;;0.70;0.70;;;20.20;48.00;;;;;;4953081;28;46488;-62
2023/04/11 07:01:36;;;;;;;0.70;0.70;;;20.30;48.00;;;;;;4952950;28;46184;-61
2023/04/11 07:04:02;;;;;;;0.90;0.77;;;20.40;47.90;;;;;;4961267;28;45395;-61
2023/04/11 07:06:28;;;;;;;1.55;0.70;;;20.50;47.90;;;;;;4955980;28;45676;-62
2023/04/11 07:08:54;;;;;;;1.23;0.73;;;20.50;47.80;;;;;;4946573;28;44996;-59
2023/04/11 07:11:19;;;;;;;3.20;1.00;;;20.60;47.70;;;;;;4944876;28;46016;-59
2023/04/11 07:13:46;;;;;;;2.97;0.70;;;20.60;47.70;;;;;;4935391;28;46421;-64
2023/04/11 07:16:11;;;;;;;3.45;0.75;;;20.80;47.70;;;;;;4939738;28;45333;-61
2023/04/11 07:18:37;;;;;;;3.30;0.70;;;20.80;47.50;;;;;;4964607;28;45178;-63
2023/04/11 07:21:02;;;;;;;0.70;0.60;;;20.90;47.40;;;;;;4959103;28;45272;-62
2023/04/11 07:23:28;;;;;;;1.92;0.52;;;21.00;47.40;;;;;;4935131;28;45554;-64
2023/04/11 07:25:54;;;;;;;2.33;0.60;;;21.10;47.40;;;;;;4944524;28;46763;-60
2023/04/11 07:28:20;;;;;;;2.50;0.60;;;21.20;47.30;;;;;;4969124;28;46375;-59
2023/04/11 07:30:46;;;;;;;0.85;0.50;;;21.20;47.30;;;;;;4957858;28;46449;-62
2023/04/11 07:33:11;;;;;;;0.82;0.60;;;21.30;47.20;;;;;;4967721;28;45500;-60
2023/04/11 07:35:37;;;;;;;1.25;0.70;;;21.30;47.20;;;;;;4955653;28;45344;-62
2023/04/11 07:38:03;;;;;;;0.60;0.60;;;21.40;47.10;;;;;;4919284;28;45304;-63
2023/04/11 07:40:29;;;;;;;0.70;0.70;;;21.50;47.00;;;;;;4926766;28;46417;-61
2023/04/11 07:42:55;;;;;;;2.63;0.60;;;21.60;47.00;;;;;;4975963;28;45401;-62
2023/04/11 07:45:20;;;;;;;1.10;0.50;;;21.70;47.00;;;;;;4963528;28;45574;-60
2023/04/11 07:47:46;;;;;;;0.77;0.68;;;21.70;46.90;;;;;;4963740;28;45093;-62
2023/04/11 07:50:12;;;;;;;0.70;0.63;;;21.80;46.80;;;;;;4947963;28;45490;-62
2023/04/11 07:52:38;;;;;;;0.77;0.60;;;21.80;46.80;;;;;;4967095;28;45360;-63
2023/04/11 07:55:04;;;;;;;0.65;0.60;;;21.90;46.80;;;;;;4966097;28;45241;-63
2023/04/11 07:57:29;;;;;;;2.10;0.70;;;22.00;46.70;;;;;;4949292;28;45258;-61
2023/04/11 07:59:58;;;;;;;1.23;0.70;;;22.10;46.70;;;;;;4961433;28;46847;-63
2023/04/11 08:02:23;;;;;;;0.55;0.52;;;22.10;46.50;;;;;;4956401;28;44809;-61
2023/04/11 08:04:49;;;;;;;1.17;0.80;;;22.20;46.60;;;;;;4967267;28;45516;-62
2023/04/11 08:07:15;;;;;;;3.33;0.77;;;22.20;46.50;;;;;;4960895;28;45333;-61
2023/04/11 08:09:41;;;;;;;2.03;0.75;;;22.30;46.50;;;;;;4964310;28;45614;-61
2023/04/11 08:12:07;;;;;;;1.08;0.52;;;22.40;46.40;;;;;;4960773;28;45441;-63
2023/04/11 08:14:33;;;;;;;1.25;0.73;;;22.40;46.40;;;;;;4965458;28;44768;-63
2023/04/11 08:16:58;;;;;;;1.38;0.50;;;22.50;46.30;;;;;;4959519;28;45606;-62
2023/04/11 08:19:24;;;;;;;1.75;1.08;;;22.50;46.20;;;;;;4960681;28;46377;-62
2023/04/11 08:21:51;;;;;;;0.65;0.38;;;22.60;46.20;;;;;;4956558;28;45465;-64
2023/04/11 08:24:17;;;;;;;0.60;0.50;;;22.70;46.20;;;;;;4967210;28;45278;-64
2023/04/11 08:26:42;;;;;;;0.85;0.65;;;22.70;46.10;;;;;;4941602;28;45112;-62
2023/04/11 08:29:10;;;;;;;1.35;0.40;;;22.70;46.00;;;;;;4969077;28;46870;-61
2023/04/11 08:31:36;;;;;;;0.93;0.70;;;22.80;46.00;;;;;;4954087;28;45527;-63
2023/04/11 08:34:02;;;;;;;2.08;0.80;;;22.80;46.00;;;;;;4967218;28;45253;-61
2023/04/11 08:36:28;;;;;;;3.17;0.60;;;22.80;46.00;;;;;;4946140;28;45491;-62
2023/04/11 08:38:55;;;;;;;0.75;0.60;;;22.80;46.00;;;;;;4964785;28;45545;-62
2023/04/11 08:41:21;;;;;;;1.38;0.57;;;22.80;46.00;;;;;;4956921;28;44971;-61
2023/04/11 08:43:46;;;;;;;3.95;0.63;;;22.90;46.00;;;;;;4966660;28;45308;-62
2023/04/11 08:46:12;;;;;;;0.80;0.65;;;22.90;46.00;;;;;;4925817;28;45222;-63
2023/04/11 08:48:38;;;;;;;3.65;0.63;;;23.00;45.90;;;;;;4962566;28;45522;-62
2023/04/11 08:51:04;;;;;;;1.77;0.40;;;23.00;45.80;;;;;;4961060;28;45213;-62
2023/04/11 08:53:29;;;;;;;3.22;0.93;;;23.00;45.80;;;;;;4952492;28;45157;-63
2023/04/11 08:55:55;;;;;;;1.98;0.60;;;23.10;45.80;;;;;;4928186;28;46006;-63
2023/04/11 08:58:21;;;;;;;1.23;0.60;;;23.10;45.80;;;;;;4965664;28;45967;-62
2023/04/11 09:00:47;;;;;;;2.65;0.47;;;23.10;45.80;;;;;;4956169;28;45177;-62
2023/04/11 09:03:15;;;;;;;0.90;0.68;;;23.20;45.70;;;;;;4965911;28;46749;-62
2023/04/11 09:05:42;;;;;;;0.80;0.55;;;23.20;45.60;;;;;;4945690;28;45373;-64
2023/04/11 09:08:09;;;;;;;1.05;0.68;;;23.20;45.60;;;;;;4953355;28;46035;-64
2023/04/11 09:10:36;;;;;;;1.23;0.50;;;23.30;45.70;;;;;;4945177;28;45433;-63
2023/04/11 09:13:22;;;;;;;1.15;0.80;;;23.40;45.60;;;;;;4966335;28;45317;-62
2023/04/11 09:16:03;;;;;;;1.58;0.40;;;23.40;45.30;;;;;;4963873;28;44894;-61
2023/04/11 09:18:33;;;;;;;0.65;0.63;;;23.50;45.40;;;;;;4961132;28;46329;-62
2023/04/11 09:21:00;;;;;;;2.05;0.70;;;23.50;45.30;;;;;;4944566;28;45216;-62
2023/04/11 09:23:26;;;;;;;2.50;0.50;;;23.60;45.40;;;;;;4951575;28;44809;-63
2023/04/11 09:25:51;;;;;;;0.65;0.40;;;23.60;45.30;;;;;;4967289;28;45331;-62
2023/04/11 09:28:17;;;;;;;0.80;0.50;;;23.60;45.30;;;;;;4950631;28;46558;-62
2023/04/11 09:30:50;;;;;;;0.80;0.40;;;23.70;45.30;;;;;;4953584;28;45193;-64
2023/04/11 09:33:23;;;;;;;0.80;0.47;;;23.70;45.10;;;;;;4949122;28;46455;-64
2023/04/11 09:35:51;;;;;;;0.82;0.60;;;23.70;45.10;;;;;;4964090;28;45041;-62
2023/04/11 09:38:26;;;;;;;1.58;0.70;;;23.70;45.20;;;;;;4963592;28;45625;-61
2023/04/11 09:40:52;;;;;;;1.90;0.43;;;23.70;44.90;;;;;;4942582;28;45356;-64
2023/04/11 09:43:18;;;;;;;1.27;0.40;;;23.70;45.10;;;;;;4965700;28;45543;-63
2023/04/11 09:45:45;;;;;;;1.30;0.50;;;23.60;45.20;;;;;;4959292;28;45292;-64
2023/04/11 09:48:11;;;;;;;1.00;0.60;;;23.50;45.30;;;;;;4945494;28;45282;-63
2023/04/11 09:50:37;;;;;;;1.13;0.60;;;23.50;45.50;;;;;;4943432;28;45688;-62
2023/04/11 09:53:03;;;;;;;3.95;0.57;;;23.40;45.60;;;;;;4951123;28;45640;-62
2023/04/11 09:55:28;;;;;;;1.85;0.68;;;23.40;45.70;;;;;;4942407;28;45359;-61
2023/04/11 09:57:54;;;;;;;1.40;0.47;;;23.30;45.80;;;;;;4945615;28;47197;-62
2023/04/11 10:00:22;;;;;;;1.02;0.45;;;23.20;45.90;;;;;;4956906;28;45131;-60
2023/04/11 10:02:51;;;;;;;0.80;0.40;;;23.20;46.00;;;;;;4930202;28;45514;-62
2023/04/11 10:05:17;;;;;;;1.42;0.50;;;23.20;46.10;;;;;;4948926;28;45065;-62
2023/04/11 10:08:15;;;;;;;3.60;0.50;;;23.10;46.10;;;;;;4937380;28;46883;-62
2023/04/11 10:10:42;;;;;;;1.15;0.60;;;23.10;46.10;;;;;;4954915;28;46241;-62
2023/04/11 10:13:42;;;;;;;2.80;0.60;;;23.00;46.30;;;;;;4968547;28;46730;-62
2023/04/11 10:16:14;;;;;;;0.47;0.40;;;23.00;46.10;;;;;;4942413;28;45556;-62
2023/04/11 10:19:06;;;;;;;1.17;0.52;;;22.90;46.40;;;;;;4960646;28;45256;-63
2023/04/11 10:21:31;;;;;;;1.25;0.40;;;22.90;46.20;;;;;;4938230;28;45553;-62
2023/04/11 10:24:12;;;;;;;0.80;0.40;;;22.80;46.40;;;;;;4959704;28;45334;-62
2023/04/11 10:26:47;;;;;;;0.55;0.40;;;22.80;46.40;;;;;;4961066;28;45482;-62
2023/04/11 10:29:41;;;;;;;1.58;0.50;;;22.80;46.50;;;;;;4956844;28;46042;-62
2023/04/11 10:32:10;;;;;;;1.30;0.50;;;22.70;46.40;;;;;;4946534;28;46524;-62
2023/04/11 10:34:37;;;;;;;0.70;0.40;;;22.70;46.60;;;;;;4963177;28;45540;-63
2023/04/11 10:37:07;;;;;;;0.40;0.40;;;22.60;46.70;;;;;;4963913;28;45033;-63
2023/04/11 10:40:03;;;;;;;1.65;0.40;;;22.60;46.70;;;;;;4963788;28;45497;-62
2023/04/11 10:42:32;;;;;;;2.17;0.60;;;22.60;46.60;;;;;;4961605;28;45292;-63
2023/04/11 10:45:17;;;;;;;0.45;0.43;;;22.50;46.80;;;;;;4954369;28;45352;-64
2023/04/11 10:47:55;;;;;;;0.80;0.50;;;22.40;46.70;;;;;;4967497;28;45607;-63
2023/04/11 10:50:33;;;;;;;1.10;0.40;;;22.40;46.90;;;;;;4967224;28;46670;-63
2023/04/11 10:53:04;;;;;;;1.10;0.32;;;22.40;46.90;;;;;;4948873;28;45201;-63
2023/04/11 10:55:34;;;;;;;0.70;0.55;;;22.30;46.90;;;;;;4947285;28;45318;-64
2023/04/11 10:58:06;;;;;;;5.20;0.80;;;22.30;47.00;;;;;;4948811;28;44903;-63
2023/04/11 11:00:51;;;;;;;0.82;0.52;;;22.20;47.00;;;;;;4960221;28;45630;-64
2023/04/11 11:03:18;;;;;;;0.88;0.47;;;22.20;46.90;;;;;;4967151;28;44578;-60
2023/04/11 11:05:43;;;;;;;0.60;0.50;;;22.20;47.00;;;;;;4964494;28;45421;-63
2023/04/11 11:08:09;;;;;;;0.50;0.50;;;22.20;47.00;;;;;;4971039;28;45064;-62
2023/04/11 11:10:42;;;;;;;1.90;0.35;;;22.20;47.00;;;;;;4968653;28;45293;-61
2023/04/11 11:13:08;;;;;;;1.27;0.70;;;22.20;47.00;;;;;;4970961;28;45146;-61
2023/04/11 11:15:36;;;;;;;1.27;0.80;;;22.10;47.00;;;;;;4964804;28;45396;-63
2023/04/11 11:18:08;;;;;;;1.27;0.60;;;22.10;47.00;;;;;;4969278;28;45213;-64
2023/04/11 11:20:37;;;;;;;2.13;0.60;;;22.10;47.00;;;;;;4966364;28;45063;-61
2023/04/11 11:23:05;;;;;;;0.60;0.52;;;22.10;47.00;;;;;;4936137;28;44696;-62
2023/04/11 11:25:30;;;;;;;1.63;0.50;;;22.10;47.10;;;;;;4960591;28;45521;-62
2023/04/11 11:28:08;;;;;;;2.20;0.50;;;22.10;47.10;;;;;;4947097;28;44802;-61
2023/04/11 11:30:37;;;;;;;0.60;0.40;;;22.10;47.10;;;;;;4958681;28;45385;-62
2023/04/11 11:33:19;;;;;;;3.20;0.52;;;22.00;47.10;;;;;;4969744;28;45418;-63
2023/04/11 11:35:50;;;;;;;1.00;0.65;;;22.10;47.10;;;;;;4963515;28;45348;-60
2023/04/11 11:38:16;;;;;;;1.05;0.50;;;22.00;47.10;;;;;;4966021;28;44749;-63
2023/04/11 11:40:42;;;;;;;2.22;0.70;;;22.00;47.20;;;;;;4950495;28;45248;-63
2023/04/11 11:43:07;;;;;;;4.57;0.82;;;22.00;47.20;;;;;;4939812;28;45299;-63
2023/04/11 11:45:33;;;;;;;0.55;0.45;;;22.00;47.30;;;;;;4964557;28;45415;-59
2023/04/11 11:47:58;;;;;;;1.70;0.57;;;22.00;47.20;;;;;;4956671;28;45261;-60
2023/04/11 11:50:25;;;;;;;3.72;0.60;;;22.00;47.20;;;;;;4960444;28;46437;-63
2023/04/11 11:52:51;;;;;;;1.38;0.50;;;22.00;47.20;;;;;;4972818;28;44746;-61
2023/04/11 11:55:17;;;;;;;0.80;0.60;;;21.90;47.20;;;;;;4965209;28;45157;-61
2023/04/11 11:57:46;;;;;;;2.55;0.52;;;21.90;47.20;;;;;;4966559;28;45196;-61
2023/04/11 12:00:12;;;;;;;0.55;0.40;;;21.90;47.80;;;;;;4946790;28;47148;-62
2023/04/11 12:02:41;;;;;;;3.10;0.68;;;21.90;47.30;;;;;;4931517;28;45166;-61
2023/04/11 12:05:09;;;;;;;0.60;0.40;;;21.90;47.30;;;;;;4951227;28;45567;-63
2023/04/11 12:07:38;;;;;;;3.03;0.60;;;21.90;47.40;;;;;;4950559;28;45234;-60
2023/04/11 12:10:10;;;;;;;0.70;0.50;;;21.80;47.40;;;;;;4933445;28;47060;-63
2023/04/11 12:12:41;;;;;;;0.57;0.50;;;21.80;47.40;;;;;;4971556;28;45303;-62
2023/04/11 12:15:11;;;;;;;2.00;0.80;;;21.80;47.50;;;;;;4935820;28;44950;-63
2023/04/11 12:17:36;;;;;;;4.03;0.70;;;21.80;47.50;;;;;;4965658;28;45485;-61
2023/04/11 12:20:09;;;;;;;3.47;0.70;;;21.80;47.50;;;;;;4971150;28;45024;-65
2023/04/11 12:22:38;;;;;;;2.63;0.60;;;21.80;47.50;;;;;;4968975;28;45319;-62
2023/04/11 12:25:11;;;;;;;0.38;0.38;;;21.80;47.50;;;;;;4968403;28;45446;-64
2023/04/11 12:27:37;;;;;;;0.65;0.40;;;21.70;47.50;;;;;;4951781;28;44649;-62
2023/04/11 12:30:07;;;;;;;2.55;0.60;;;21.70;47.50;;;;;;4949543;28;46144;-64
2023/04/11 12:32:33;;;;;;;0.95;0.40;;;21.70;47.50;;;;;;4951424;28;45448;-60
2023/04/11 12:34:59;;;;;;;2.83;0.35;;;21.70;47.50;;;;;;4940287;28;45012;-62
2023/04/11 12:37:24;;;;;;;1.42;0.77;;;21.70;47.50;;;;;;4950698;28;46134;-62
2023/04/11 12:39:50;;;;;;;0.45;0.40;;;21.70;47.50;;;;;;4967433;28;47006;-61
2023/04/11 12:42:16;;;;;;;3.22;0.57;;;21.70;47.60;;;;;;4934468;28;45235;-61
2023/04/11 12:44:42;;;;;;;2.25;0.77;;;21.70;47.60;;;;;;4957408;28;45601;-62
2023/04/11 12:47:07;;;;;;;4.00;0.50;;;21.70;47.50;;;;;;4944532;28;45625;-61
2023/04/11 12:49:33;;;;;;;1.73;0.60;;;21.60;47.50;;;;;;4967640;28;45684;-61
2023/04/11 12:51:59;;;;;;;0.98;0.50;;;21.60;47.60;;;;;;4966205;28;45201;-65
2023/04/11 12:54:24;;;;;;;0.60;0.40;;;21.60;47.60;;;;;;4956434;28;45128;-59
2023/04/11 12:56:50;;;;;;;2.47;0.40;;;21.60;47.60;;;;;;4967133;28;45334;-58
2023/04/11 12:59:16;;;;;;;1.20;0.60;;;21.60;47.70;;;;;;4968873;28;50982;-62
2023/04/11 13:01:42;;;;;;;1.00;0.50;;;21.60;47.70;;;;;;4960149;28;45342;-60
2023/04/11 13:04:08;;;;;;;0.80;0.50;;;21.60;47.70;;;;;;4951755;28;45300;-61
2023/04/11 13:06:35;;;;;;;1.52;0.70;;;21.60;47.80;;;;;;4937278;28;45469;-62
2023/04/11 13:09:01;;;;;;;1.20;0.35;;;21.60;47.80;;;;;;4938750;28;48096;-62
2023/04/11 13:11:26;;;;;;;0.52;0.32;;;21.60;47.80;;;;;;4953099;28;45458;-60
2023/04/11 13:13:52;;;;;;;1.67;0.40;;;21.60;47.80;;;;;;4967489;28;45576;-62
2023/04/11 13:16:17;;;;;;;2.50;0.60;;;21.60;47.80;;;;;;4963553;28;45153;-60
2023/04/11 13:18:43;;;;;;;1.77;0.60;;;21.50;47.80;;;;;;4948944;28;47854;-64
2023/04/11 13:21:09;;;;;;;0.98;0.50;;;21.60;47.90;;;;;;4945929;28;45458;-62
2023/04/11 13:23:34;;;;;;;1.70;0.50;;;21.60;47.90;;;;;;4969634;28;45236;-62
2023/04/11 13:26:00;;;;;;;0.55;0.47;;;21.50;47.80;;;;;;4964096;28;45565;-62
2023/04/11 13:28:26;;;;;;;3.83;0.60;;;21.50;47.90;;;;;;4952207;28;45643;-60
2023/04/11 13:30:52;;;;;;;2.05;0.50;;;21.50;47.90;;;;;;4949856;28;45897;-60
2023/04/11 13:33:18;;;;;;;1.00;0.40;;;21.50;47.90;;;;;;4951473;28;45510;-62
2023/04/11 13:35:44;;;;;;;2.92;1.15;;;21.50;47.90;;;;;;4947792;28;45232;-62
2023/04/11 13:38:12;;;;;;;0.63;0.55;;;21.50;47.90;;;;;;4956604;28;45253;-62
2023/04/11 13:40:40;;;;;;;0.85;0.65;;;21.50;48.00;;;;;;4965647;28;45297;-61
2023/04/11 13:43:05;;;;;;;0.50;0.40;;;21.50;48.00;;;;;;4952671;28;45347;-63
2023/04/11 13:45:31;;;;;;;0.65;0.40;;;21.50;48.00;;;;;;4959861;28;44686;-63
2023/04/11 13:47:59;;;;;;;0.90;0.50;;;21.50;48.10;;;;;;4948892;28;47224;-63
2023/04/11 13:50:25;;;;;;;0.45;0.40;;;21.50;48.10;;;;;;4965411;28;44876;-63
2023/04/11 13:52:50;;;;;;;2.17;0.35;;;21.50;48.10;;;;;;4970444;28;44937;-62
2023/04/11 13:55:16;;;;;;;1.15;0.50;;;21.50;48.70;;;;;;4950691;28;45243;-60
2023/04/11 13:57:41;;;;;;;0.43;0.40;;;21.40;48.10;;;;;;4972588;28;46420;-60
2023/04/11 14:00:10;;;;;;;1.37;0.67;;;21.40;48.70;;;;;;4962089;28;45198;-64
2023/04/11 14:02:37;;;;;;;0.85;0.50;;;21.60;47.90;;;;;;4960744;28;45402;-61
2023/04/11 14:05:04;;;;;;;3.53;0.40;;;21.50;48.10;;;;;;4967885;28;45143;-63
2023/04/11 14:07:32;;;;;;;4.57;0.60;;;21.40;48.20;;;;;;4952151;28;45611;-59
2023/04/11 14:09:58;;;;;;;0.93;0.38;;;21.40;48.20;;;;;;4971238;28;45501;-62
2023/04/11 14:12:24;;;;;;;0.70;0.50;;;21.40;48.30;;;;;;4962675;28;45404;-61
2023/04/11 14:14:50;;;;;;;4.28;0.50;;;21.40;48.30;;;;;;4968450;28;45395;-62
2023/04/11 14:17:15;;;;;;;2.15;0.30;;;21.30;48.20;;;;;;4951542;28;45448;-60
2023/04/11 14:19:41;;;;;;;0.93;0.40;;;21.40;48.30;;;;;;4967489;28;45407;-62
2023/04/11 14:22:07;;;;;;;1.00;0.50;;;21.30;48.20;;;;;;4948416;28;45290;-64
2023/04/11 14:24:33;;;;;;;1.08;0.50;;;21.30;48.20;;;;;;4940704;28;45174;-62
2023/04/11 14:26:58;;;;;;;1.80;0.50;;;21.30;48.20;;;;;;4962878;28;45465;-61
2023/04/11 14:29:25;;;;;;;1.27;0.52;;;21.30;48.30;;;;;;4970774;28;45049;-63
2023/04/11 14:31:50;;;;;;;0.63;0.50;;;21.30;48.30;;;;;;4943144;28;45348;-62
2023/04/11 14:34:17;;;;;;;1.65;0.50;;;21.30;48.30;;;;;;4967740;28;45461;-62
2023/04/11 14:36:43;;;;;;;0.40;0.40;;;21.30;48.30;;;;;;4948735;28;46213;-63
2023/04/11 14:39:09;;;;;;;1.10;0.50;;;21.30;48.30;;;;;;4972792;28;45302;-62
2023/04/11 14:41:34;;;;;;;1.38;0.60;;;21.30;48.30;;;;;;4950200;28;45278;-61
2023/04/11 14:44:00;;;;;;;1.67;0.40;;;21.30;48.40;;;;;;4968771;28;45316;-65
2023/04/11 14:46:26;;;;;;;0.30;0.30;;;21.30;48.40;;;;;;4943160;28;47642;-63
2023/04/11 14:48:51;;;;;;;1.92;0.40;;;21.30;48.40;;;;;;4968658;28;45225;-62
2023/04/11 14:51:17;;;;;;;1.70;0.85;;;21.30;48.40;;;;;;4947365;28;45167;-62
2023/04/11 14:53:43;;;;;;;1.20;0.50;;;21.30;48.40;;;;;;4952576;28;45547;-64
2023/04/11 14:56:08;;;;;;;0.95;0.43;;;21.30;49.00;;;;;;4938923;28;45044;-65
2023/04/11 14:58:34;;;;;;;0.52;0.32;;;21.30;48.40;;;;;;4947262;28;45498;-63
2023/04/11 15:01:00;;;;;;;0.60;0.40;;;21.30;48.40;;;;;;4974470;22;46063;-66
2023/04/11 15:03:25;;;;;;;1.00;0.55;;;21.30;48.40;;;;;;4943093;28;45298;-62
2023/04/11 15:05:51;;;;;;;0.88;0.50;;;21.30;48.50;;;;;;4962980;28;46376;-63
2023/04/11 15:08:16;;;;;;;0.95;0.60;;;21.20;48.50;;;;;;4910275;28;45320;-61
2023/04/11 15:10:42;;;;;;;1.15;0.45;;;21.20;48.50;;;;;;4962866;28;44960;-62
2023/04/11 15:13:10;;;;;;;0.85;0.50;;;21.20;48.60;;;;;;4936058;28;46183;-63
2023/04/11 15:15:36;;;;;;;1.15;0.52;;;21.20;48.60;;;;;;4928663;28;46814;-62
2023/04/11 15:18:24;;;;;;;0.45;0.40;;;21.20;48.60;;;;;;4937483;28;45351;-63
2023/04/11 15:20:51;;;;;;;1.98;0.50;;;21.20;48.70;;;;;;4951149;28;45305;-62
2023/04/11 15:23:17;;;;;;;0.30;0.30;;;21.10;48.70;;;;;;4948637;28;45543;-63
2023/04/11 15:25:43;;;;;;;1.00;0.35;;;21.20;48.80;;;;;;4967077;28;45547;-59
2023/04/11 15:28:10;;;;;;;0.80;0.50;;;21.10;48.70;;;;;;4945221;28;44678;-60
2023/04/11 15:30:47;;;;;;;1.65;0.50;;;21.10;48.60;;;;;;4953704;28;46433;-58
2023/04/11 15:33:13;;;;;;;2.92;0.50;;;21.00;47.50;;;;;;4911261;28;45582;-59
2023/04/11 15:35:41;;;;;;;2.30;0.30;;;21.00;47.50;;;;;;4941791;28;46197;-60
2023/04/11 15:38:06;;;;;;;2.92;0.60;;;21.00;47.70;;;;;;4965156;28;45209;-60
2023/04/11 15:40:32;;;;;;;0.45;0.30;;;20.90;47.50;;;;;;4913300;28;45789;-59
2023/04/11 15:42:57;;;;;;;2.47;0.55;;;21.00;47.40;;;;;;4963961;28;45149;-59
2023/04/11 15:45:23;;;;;;;0.60;0.38;;;20.90;47.30;;;;;;4942420;28;46254;-60
2023/04/11 15:47:49;;;;;;;0.55;0.43;;;21.00;47.40;;;;;;4958878;28;45310;-59
2023/04/11 15:50:16;;;;;;;0.60;0.50;;;20.90;47.40;;;;;;4964236;28;45260;-60